Pagrindinis puslapis
METAR-TAF:

METAR-TAF

Oro uostai :

Kuusamo, Suomija

platuma: 65-58N, ilguma: 029-11E, Aukštis: 262 m

Dabartinis oras

Ataskaita buvo paskelbta 10 minutes, ne 21:20 UTC
Vėjas 3 kt iš Pietvakarių
Temperatūra 13°C
Drėgmė 77%
Slėgis 1014 hPa
Matomumas 10 km arba daugiau
Mažai debesys ne aukštis 4800 ft

METAR: EFKS 172120Z AUTO 22003KT 9999 FEW048 13/09 Q1014

Laikas: 00:30 (21:30 UTC)

Prognozė

Ataskaita buvo paskelbta 4 valandos ir 5 minutes, ne 17:25 UTC
Prognozė galioja nuo 17 metu 18 UTC su 17 metu 21 UTC
Vėjas 7 kt iš Pietvakarių
Matomumas 10 km arba daugiau
nėra debesų žemiau 1500 m ir nėra kamuolinių lietaus debesų

TAF: EFKS 171725Z 1718/1721 22007KT CAVOK

Orai ataskaitas ir orų prognozės (METAR, TAF).

turimą stotys yra geltonos ir raudonos taškus žemėlapyje.

Perkelti pele per norėdami pamatyti stoties vardą.

Tada spustelėkite, norėdami matyti oro stebėjimo ir prognozės.

Norėdami pakeisti žemėlapį: spustelėkite ant žalios mygtukų su juodo kryžiaus žemyn,; žalią mygtuką su brūkšneliu, jei norite nutolinti; arba žalių rodyklių gretimoms žemėlapius.


METAR-TAF: